sensor_id;sensor_type;location;lat;lon;timestamp;temperature;humidity
8892;DHT22;4482;54.332;10.118;2022-12-11T00:00:10;-2.60;99.90
8892;DHT22;4482;54.332;10.118;2022-12-11T00:02:40;-2.60;99.90
8892;DHT22;4482;54.332;10.118;2022-12-11T00:05:08;-2.60;99.90
8892;DHT22;4482;54.332;10.118;2022-12-11T00:07:35;-2.60;99.90
8892;DHT22;4482;54.332;10.118;2022-12-11T00:10:03;-2.70;99.90
8892;DHT22;4482;54.332;10.118;2022-12-11T00:12:30;-2.70;99.90
8892;DHT22;4482;54.332;10.118;2022-12-11T00:14:57;-2.70;99.90
8892;DHT22;4482;54.332;10.118;2022-12-11T00:17:24;-2.60;99.90
8892;DHT22;4482;54.332;10.118;2022-12-11T00:19:51;-2.60;99.90
8892;DHT22;4482;54.332;10.118;2022-12-11T00:22:20;-2.70;99.90
8892;DHT22;4482;54.332;10.118;2022-12-11T00:24:46;-2.70;99.90
8892;DHT22;4482;54.332;10.118;2022-12-11T00:27:13;-2.70;99.90
8892;DHT22;4482;54.332;10.118;2022-12-11T00:29:40;-2.70;99.90
8892;DHT22;4482;54.332;10.118;2022-12-11T00:32:07;-2.70;99.90
8892;DHT22;4482;54.332;10.118;2022-12-11T00:34:34;-2.70;99.90
8892;DHT22;4482;54.332;10.118;2022-12-11T00:37:01;-2.70;99.90
8892;DHT22;4482;54.332;10.118;2022-12-11T00:39:29;-2.70;99.90
8892;DHT22;4482;54.332;10.118;2022-12-11T00:41:56;-2.70;99.90
8892;DHT22;4482;54.332;10.118;2022-12-11T00:44:23;-2.70;99.90
8892;DHT22;4482;54.332;10.118;2022-12-11T00:46:50;-2.70;99.90
8892;DHT22;4482;54.332;10.118;2022-12-11T00:49:16;-2.70;99.90
8892;DHT22;4482;54.332;10.118;2022-12-11T00:51:43;-2.70;99.90
8892;DHT22;4482;54.332;10.118;2022-12-11T00:54:10;-2.70;99.90
8892;DHT22;4482;54.332;10.118;2022-12-11T00:56:38;-2.70;99.90
8892;DHT22;4482;54.332;10.118;2022-12-11T00:59:05;-2.60;99.90
8892;DHT22;4482;54.332;10.118;2022-12-11T01:01:32;-2.60;99.90
8892;DHT22;4482;54.332;10.118;2022-12-11T01:03:59;-2.60;99.90
8892;DHT22;4482;54.332;10.118;2022-12-11T01:06:27;-2.60;99.90
8892;DHT22;4482;54.332;10.118;2022-12-11T01:08:55;-2.60;99.90
8892;DHT22;4482;54.332;10.118;2022-12-11T01:11:36;-2.50;99.90
8892;DHT22;4482;54.332;10.118;2022-12-11T01:14:04;-2.50;99.90
8892;DHT22;4482;54.332;10.118;2022-12-11T01:16:31;-2.50;99.90
8892;DHT22;4482;54.332;10.118;2022-12-11T01:18:58;-2.40;99.90
8892;DHT22;4482;54.332;10.118;2022-12-11T01:21:25;-2.40;99.90
8892;DHT22;4482;54.332;10.118;2022-12-11T01:23:52;-2.40;99.90
8892;DHT22;4482;54.332;10.118;2022-12-11T01:26:19;-2.30;99.90
8892;DHT22;4482;54.332;10.118;2022-12-11T01:28:48;-2.40;99.90
8892;DHT22;4482;54.332;10.118;2022-12-11T01:31:20;-2.40;99.90
8892;DHT22;4482;54.332;10.118;2022-12-11T01:33:47;-2.40;99.90
8892;DHT22;4482;54.332;10.118;2022-12-11T01:36:16;-2.40;99.90
8892;DHT22;4482;54.332;10.118;2022-12-11T01:38:43;-2.40;99.90
8892;DHT22;4482;54.332;10.118;2022-12-11T01:41:10;-2.40;99.90
8892;DHT22;4482;54.332;10.118;2022-12-11T01:43:56;-2.40;99.90
8892;DHT22;4482;54.332;10.118;2022-12-11T01:46:25;-2.30;99.90
8892;DHT22;4482;54.332;10.118;2022-12-11T01:48:53;-2.30;99.90
8892;DHT22;4482;54.332;10.118;2022-12-11T01:51:21;-2.30;99.90
8892;DHT22;4482;54.332;10.118;2022-12-11T01:53:51;-2.30;99.90
8892;DHT22;4482;54.332;10.118;2022-12-11T01:56:19;-2.30;99.90
8892;DHT22;4482;54.332;10.118;2022-12-11T01:58:48;-2.30;99.90
8892;DHT22;4482;54.332;10.118;2022-12-11T02:01:21;-2.30;99.90
8892;DHT22;4482;54.332;10.118;2022-12-11T02:03:52;-2.20;99.90
8892;DHT22;4482;54.332;10.118;2022-12-11T02:06:31;-2.20;99.90
8892;DHT22;4482;54.332;10.118;2022-12-11T02:08:59;-2.20;99.90
8892;DHT22;4482;54.332;10.118;2022-12-11T02:11:31;-2.20;99.90
8892;DHT22;4482;54.332;10.118;2022-12-11T02:14:05;-2.20;99.90
8892;DHT22;4482;54.332;10.118;2022-12-11T02:16:43;-2.20;99.90
8892;DHT22;4482;54.332;10.118;2022-12-11T02:19:21;-2.30;99.90
8892;DHT22;4482;54.332;10.118;2022-12-11T02:21:52;-2.30;99.90
8892;DHT22;4482;54.332;10.118;2022-12-11T02:24:52;-2.30;99.90
8892;DHT22;4482;54.332;10.118;2022-12-11T02:27:29;-2.20;99.90
8892;DHT22;4482;54.332;10.118;2022-12-11T02:30:02;-2.20;99.90
8892;DHT22;4482;54.332;10.118;2022-12-11T02:32:34;-2.30;99.90
8892;DHT22;4482;54.332;10.118;2022-12-11T02:35:08;-2.30;99.90
8892;DHT22;4482;54.332;10.118;2022-12-11T02:37:38;-2.30;99.90
8892;DHT22;4482;54.332;10.118;2022-12-11T02:40:09;-2.30;99.90
8892;DHT22;4482;54.332;10.118;2022-12-11T02:42:39;-2.20;99.90
8892;DHT22;4482;54.332;10.118;2022-12-11T02:45:09;-2.30;99.90
8892;DHT22;4482;54.332;10.118;2022-12-11T02:47:38;-2.30;99.90
8892;DHT22;4482;54.332;10.118;2022-12-11T02:50:08;-2.30;99.90
8892;DHT22;4482;54.332;10.118;2022-12-11T02:52:37;-2.30;99.90
8892;DHT22;4482;54.332;10.118;2022-12-11T02:55:06;-2.30;99.90
8892;DHT22;4482;54.332;10.118;2022-12-11T02:57:38;-2.30;99.90
8892;DHT22;4482;54.332;10.118;2022-12-11T03:00:10;-2.20;99.90
8892;DHT22;4482;54.332;10.118;2022-12-11T03:02:37;-2.20;99.90
8892;DHT22;4482;54.332;10.118;2022-12-11T03:05:05;-2.20;99.90
8892;DHT22;4482;54.332;10.118;2022-12-11T03:07:34;-2.20;99.90
8892;DHT22;4482;54.332;10.118;2022-12-11T03:10:03;-2.20;99.90
8892;DHT22;4482;54.332;10.118;2022-12-11T03:12:34;-2.20;99.90
8892;DHT22;4482;54.332;10.118;2022-12-11T03:15:05;-2.20;99.90
8892;DHT22;4482;54.332;10.118;2022-12-11T03:17:37;-2.20;99.90
8892;DHT22;4482;54.332;10.118;2022-12-11T03:20:10;-2.10;99.90
8892;DHT22;4482;54.332;10.118;2022-12-11T03:22:41;-2.10;99.90
8892;DHT22;4482;54.332;10.118;2022-12-11T03:25:13;-2.00;99.90
8892;DHT22;4482;54.332;10.118;2022-12-11T03:27:45;-2.00;99.90
8892;DHT22;4482;54.332;10.118;2022-12-11T03:30:16;-2.00;99.90
8892;DHT22;4482;54.332;10.118;2022-12-11T03:32:47;-2.00;99.90
8892;DHT22;4482;54.332;10.118;2022-12-11T03:35:20;-2.00;99.90
8892;DHT22;4482;54.332;10.118;2022-12-11T03:37:50;-1.90;99.90
8892;DHT22;4482;54.332;10.118;2022-12-11T03:40:20;-2.00;99.90
8892;DHT22;4482;54.332;10.118;2022-12-11T03:42:50;-2.00;99.90
8892;DHT22;4482;54.332;10.118;2022-12-11T03:45:19;-2.00;99.90
8892;DHT22;4482;54.332;10.118;2022-12-11T03:47:49;-2.00;99.90
8892;DHT22;4482;54.332;10.118;2022-12-11T03:50:17;-2.10;99.90
8892;DHT22;4482;54.332;10.118;2022-12-11T03:52:45;-2.10;99.90
8892;DHT22;4482;54.332;10.118;2022-12-11T03:55:15;-2.10;99.90
8892;DHT22;4482;54.332;10.118;2022-12-11T03:57:42;-2.10;99.90
8892;DHT22;4482;54.332;10.118;2022-12-11T04:00:12;-2.10;99.90
8892;DHT22;4482;54.332;10.118;2022-12-11T04:02:40;-2.10;99.90
8892;DHT22;4482;54.332;10.118;2022-12-11T04:05:09;-2.10;99.90
8892;DHT22;4482;54.332;10.118;2022-12-11T04:07:37;-2.10;99.90
8892;DHT22;4482;54.332;10.118;2022-12-11T04:10:05;-2.10;99.90
8892;DHT22;4482;54.332;10.118;2022-12-11T04:12:32;-2.10;99.90
8892;DHT22;4482;54.332;10.118;2022-12-11T04:14:59;-2.10;99.90
8892;DHT22;4482;54.332;10.118;2022-12-11T04:17:28;-2.20;99.90
8892;DHT22;4482;54.332;10.118;2022-12-11T04:20:14;-2.20;99.90
8892;DHT22;4482;54.332;10.118;2022-12-11T04:22:58;-2.30;99.90
8892;DHT22;4482;54.332;10.118;2022-12-11T04:25:42;-2.30;99.90
8892;DHT22;4482;54.332;10.118;2022-12-11T04:28:09;-2.40;99.90
8892;DHT22;4482;54.332;10.118;2022-12-11T04:30:36;-2.40;99.90
8892;DHT22;4482;54.332;10.118;2022-12-11T04:33:03;-2.40;99.90
8892;DHT22;4482;54.332;10.118;2022-12-11T04:35:32;-2.50;99.90
8892;DHT22;4482;54.332;10.118;2022-12-11T04:37:58;-2.50;99.90
8892;DHT22;4482;54.332;10.118;2022-12-11T04:40:26;-2.60;99.90
8892;DHT22;4482;54.332;10.118;2022-12-11T04:42:52;-2.60;99.90
8892;DHT22;4482;54.332;10.118;2022-12-11T04:45:19;-2.60;99.90
8892;DHT22;4482;54.332;10.118;2022-12-11T04:47:46;-2.60;99.90
8892;DHT22;4482;54.332;10.118;2022-12-11T04:50:14;-2.60;99.90
8892;DHT22;4482;54.332;10.118;2022-12-11T04:52:42;-2.60;99.90
8892;DHT22;4482;54.332;10.118;2022-12-11T04:55:10;-2.60;99.90
8892;DHT22;4482;54.332;10.118;2022-12-11T04:57:37;-2.60;99.90
8892;DHT22;4482;54.332;10.118;2022-12-11T05:00:06;-2.70;99.90
8892;DHT22;4482;54.332;10.118;2022-12-11T05:02:34;-2.70;99.90
8892;DHT22;4482;54.332;10.118;2022-12-11T05:05:02;-2.70;99.90
8892;DHT22;4482;54.332;10.118;2022-12-11T05:07:29;-2.80;99.90
8892;DHT22;4482;54.332;10.118;2022-12-11T05:09:58;-2.90;99.90
8892;DHT22;4482;54.332;10.118;2022-12-11T05:12:25;-2.90;99.90
8892;DHT22;4482;54.332;10.118;2022-12-11T05:14:52;-2.90;99.90
8892;DHT22;4482;54.332;10.118;2022-12-11T05:17:19;-2.90;99.90
8892;DHT22;4482;54.332;10.118;2022-12-11T05:19:46;-2.90;99.90
8892;DHT22;4482;54.332;10.118;2022-12-11T05:22:14;-3.00;99.90
8892;DHT22;4482;54.332;10.118;2022-12-11T05:24:41;-3.00;99.90
8892;DHT22;4482;54.332;10.118;2022-12-11T05:27:09;-3.00;99.90
8892;DHT22;4482;54.332;10.118;2022-12-11T05:29:36;-3.00;99.90
8892;DHT22;4482;54.332;10.118;2022-12-11T05:32:03;-3.00;99.90
8892;DHT22;4482;54.332;10.118;2022-12-11T05:34:30;-3.10;99.90
8892;DHT22;4482;54.332;10.118;2022-12-11T05:36:57;-3.00;99.90
8892;DHT22;4482;54.332;10.118;2022-12-11T05:39:24;-3.10;99.90
8892;DHT22;4482;54.332;10.118;2022-12-11T05:41:51;-3.10;99.90
8892;DHT22;4482;54.332;10.118;2022-12-11T05:44:19;-2.30;99.90
8892;DHT22;4482;54.332;10.118;2022-12-11T05:46:46;-2.00;99.90
8892;DHT22;4482;54.332;10.118;2022-12-11T05:49:12;-2.40;99.90
8892;DHT22;4482;54.332;10.118;2022-12-11T05:51:39;-2.60;99.90
8892;DHT22;4482;54.332;10.118;2022-12-11T05:54:08;-2.80;99.90
8892;DHT22;4482;54.332;10.118;2022-12-11T05:56:35;-2.90;99.90
8892;DHT22;4482;54.332;10.118;2022-12-11T05:59:04;-3.00;99.90
8892;DHT22;4482;54.332;10.118;2022-12-11T06:01:34;-3.00;99.90
8892;DHT22;4482;54.332;10.118;2022-12-11T06:04:02;-3.10;99.90
8892;DHT22;4482;54.332;10.118;2022-12-11T06:06:29;-3.10;99.90
8892;DHT22;4482;54.332;10.118;2022-12-11T06:08:57;-3.10;99.90
8892;DHT22;4482;54.332;10.118;2022-12-11T06:11:26;-3.20;99.90
8892;DHT22;4482;54.332;10.118;2022-12-11T06:13:53;-3.20;99.90
8892;DHT22;4482;54.332;10.118;2022-12-11T06:16:21;-3.20;99.90
8892;DHT22;4482;54.332;10.118;2022-12-11T06:18:49;-3.20;99.90
8892;DHT22;4482;54.332;10.118;2022-12-11T06:21:19;-3.20;99.90
8892;DHT22;4482;54.332;10.118;2022-12-11T06:23:47;-3.20;99.90
8892;DHT22;4482;54.332;10.118;2022-12-11T06:26:15;-3.20;99.90
8892;DHT22;4482;54.332;10.118;2022-12-11T06:28:42;-3.20;99.90
8892;DHT22;4482;54.332;10.118;2022-12-11T06:31:09;-2.20;99.90
8892;DHT22;4482;54.332;10.118;2022-12-11T06:33:37;-2.20;99.90
8892;DHT22;4482;54.332;10.118;2022-12-11T06:36:08;-2.60;99.90
8892;DHT22;4482;54.332;10.118;2022-12-11T06:38:36;-2.90;99.90
8892;DHT22;4482;54.332;10.118;2022-12-11T06:41:04;-3.10;99.90
8892;DHT22;4482;54.332;10.118;2022-12-11T06:43:32;-3.20;99.90
8892;DHT22;4482;54.332;10.118;2022-12-11T06:46:02;-3.20;99.90
8892;DHT22;4482;54.332;10.118;2022-12-11T06:48:29;-3.30;99.90
8892;DHT22;4482;54.332;10.118;2022-12-11T06:50:56;-3.30;99.90
8892;DHT22;4482;54.332;10.118;2022-12-11T06:53:24;-3.30;99.90
8892;DHT22;4482;54.332;10.118;2022-12-11T06:55:51;-3.30;99.90
8892;DHT22;4482;54.332;10.118;2022-12-11T06:58:18;-3.40;99.90
8892;DHT22;4482;54.332;10.118;2022-12-11T07:00:44;-3.40;99.90
8892;DHT22;4482;54.332;10.118;2022-12-11T07:03:11;-3.40;99.90
8892;DHT22;4482;54.332;10.118;2022-12-11T07:05:38;-3.40;99.90
8892;DHT22;4482;54.332;10.118;2022-12-11T07:08:05;-3.40;99.90
8892;DHT22;4482;54.332;10.118;2022-12-11T07:10:34;-3.40;99.90
8892;DHT22;4482;54.332;10.118;2022-12-11T07:13:00;-3.40;99.90
8892;DHT22;4482;54.332;10.118;2022-12-11T07:15:27;-3.30;99.90
8892;DHT22;4482;54.332;10.118;2022-12-11T07:17:54;-3.40;99.90
8892;DHT22;4482;54.332;10.118;2022-12-11T07:20:21;-3.40;99.90
8892;DHT22;4482;54.332;10.118;2022-12-11T07:22:48;-3.40;99.90
8892;DHT22;4482;54.332;10.118;2022-12-11T07:25:15;-3.30;99.90
8892;DHT22;4482;54.332;10.118;2022-12-11T07:27:43;-3.30;99.90
8892;DHT22;4482;54.332;10.118;2022-12-11T07:30:11;-3.30;99.90
8892;DHT22;4482;54.332;10.118;2022-12-11T07:32:38;-3.30;99.90
8892;DHT22;4482;54.332;10.118;2022-12-11T07:35:05;-3.30;99.90
8892;DHT22;4482;54.332;10.118;2022-12-11T07:37:32;-2.60;99.90
8892;DHT22;4482;54.332;10.118;2022-12-11T07:39:59;-2.60;99.90
8892;DHT22;4482;54.332;10.118;2022-12-11T07:42:27;-2.90;99.90
8892;DHT22;4482;54.332;10.118;2022-12-11T07:44:55;-3.10;99.90
8892;DHT22;4482;54.332;10.118;2022-12-11T07:47:22;-3.20;99.90
8892;DHT22;4482;54.332;10.118;2022-12-11T07:49:49;-3.20;99.90
8892;DHT22;4482;54.332;10.118;2022-12-11T07:52:16;-3.20;99.90
8892;DHT22;4482;54.332;10.118;2022-12-11T07:54:43;-3.20;99.90
8892;DHT22;4482;54.332;10.118;2022-12-11T07:57:09;-3.30;99.90
8892;DHT22;4482;54.332;10.118;2022-12-11T07:59:36;-3.30;99.90
8892;DHT22;4482;54.332;10.118;2022-12-11T08:02:04;-3.20;99.90
8892;DHT22;4482;54.332;10.118;2022-12-11T08:04:31;-3.20;99.90
8892;DHT22;4482;54.332;10.118;2022-12-11T08:06:58;-3.20;99.90
8892;DHT22;4482;54.332;10.118;2022-12-11T08:09:25;-3.20;99.90
8892;DHT22;4482;54.332;10.118;2022-12-11T08:11:52;-3.20;99.90
8892;DHT22;4482;54.332;10.118;2022-12-11T08:14:19;-3.10;99.90
8892;DHT22;4482;54.332;10.118;2022-12-11T08:16:46;-3.10;99.90
8892;DHT22;4482;54.332;10.118;2022-12-11T08:19:15;-3.10;99.90
8892;DHT22;4482;54.332;10.118;2022-12-11T08:21:43;-3.10;99.90
8892;DHT22;4482;54.332;10.118;2022-12-11T08:24:10;-3.10;99.90
8892;DHT22;4482;54.332;10.118;2022-12-11T08:26:37;-3.00;99.90
8892;DHT22;4482;54.332;10.118;2022-12-11T08:29:04;-3.00;99.90
8892;DHT22;4482;54.332;10.118;2022-12-11T08:31:31;-2.90;99.90
8892;DHT22;4482;54.332;10.118;2022-12-11T08:33:59;-2.90;99.90
8892;DHT22;4482;54.332;10.118;2022-12-11T08:36:27;-2.80;99.90
8892;DHT22;4482;54.332;10.118;2022-12-11T08:38:55;-2.80;99.90
8892;DHT22;4482;54.332;10.118;2022-12-11T08:41:24;-2.70;99.90
8892;DHT22;4482;54.332;10.118;2022-12-11T08:43:51;-2.70;99.90
8892;DHT22;4482;54.332;10.118;2022-12-11T08:46:20;-2.60;99.90
8892;DHT22;4482;54.332;10.118;2022-12-11T08:48:47;-2.60;99.90
8892;DHT22;4482;54.332;10.118;2022-12-11T08:51:16;-2.60;99.90
8892;DHT22;4482;54.332;10.118;2022-12-11T08:53:44;-2.60;99.90
8892;DHT22;4482;54.332;10.118;2022-12-11T08:56:13;-2.60;99.90
8892;DHT22;4482;54.332;10.118;2022-12-11T08:58:40;-2.60;99.90
8892;DHT22;4482;54.332;10.118;2022-12-11T09:01:08;-2.50;99.90
8892;DHT22;4482;54.332;10.118;2022-12-11T09:03:35;-1.70;99.90
8892;DHT22;4482;54.332;10.118;2022-12-11T09:06:04;-1.70;99.90
8892;DHT22;4482;54.332;10.118;2022-12-11T09:08:31;-2.00;99.90
8892;DHT22;4482;54.332;10.118;2022-12-11T09:11:03;-2.10;99.90
8892;DHT22;4482;54.332;10.118;2022-12-11T09:13:30;-2.20;99.90
8892;DHT22;4482;54.332;10.118;2022-12-11T09:15:57;-2.30;99.90
8892;DHT22;4482;54.332;10.118;2022-12-11T09:18:24;-2.30;99.90
8892;DHT22;4482;54.332;10.118;2022-12-11T09:20:57;-2.40;99.90
8892;DHT22;4482;54.332;10.118;2022-12-11T09:23:25;-2.30;99.90
8892;DHT22;4482;54.332;10.118;2022-12-11T09:25:52;-2.30;99.90
8892;DHT22;4482;54.332;10.118;2022-12-11T09:28:20;-2.30;99.90
8892;DHT22;4482;54.332;10.118;2022-12-11T09:30:47;-2.30;99.90
8892;DHT22;4482;54.332;10.118;2022-12-11T09:33:14;-2.30;99.90
8892;DHT22;4482;54.332;10.118;2022-12-11T09:35:41;-2.20;99.90
8892;DHT22;4482;54.332;10.118;2022-12-11T09:38:08;-2.20;99.90
8892;DHT22;4482;54.332;10.118;2022-12-11T09:40:39;-2.20;99.90
8892;DHT22;4482;54.332;10.118;2022-12-11T09:43:13;-2.10;99.90
8892;DHT22;4482;54.332;10.118;2022-12-11T09:45:44;-2.10;99.90
8892;DHT22;4482;54.332;10.118;2022-12-11T09:48:21;-2.10;99.90
8892;DHT22;4482;54.332;10.118;2022-12-11T09:50:51;-2.00;99.90
8892;DHT22;4482;54.332;10.118;2022-12-11T09:53:24;-2.00;99.90
8892;DHT22;4482;54.332;10.118;2022-12-11T09:55:57;-2.00;99.90
8892;DHT22;4482;54.332;10.118;2022-12-11T09:58:30;-1.90;99.90
8892;DHT22;4482;54.332;10.118;2022-12-11T10:01:04;-1.90;99.90
8892;DHT22;4482;54.332;10.118;2022-12-11T10:03:50;-1.80;99.90
8892;DHT22;4482;54.332;10.118;2022-12-11T10:06:26;-1.80;99.90
8892;DHT22;4482;54.332;10.118;2022-12-11T10:09:02;-1.70;99.90
8892;DHT22;4482;54.332;10.118;2022-12-11T10:11:44;-1.30;99.90
8892;DHT22;4482;54.332;10.118;2022-12-11T10:14:21;-1.00;99.90
8892;DHT22;4482;54.332;10.118;2022-12-11T10:16:53;-1.20;99.90
8892;DHT22;4482;54.332;10.118;2022-12-11T10:19:25;-1.30;99.90
8892;DHT22;4482;54.332;10.118;2022-12-11T10:21:53;-1.40;99.90
8892;DHT22;4482;54.332;10.118;2022-12-11T10:24:26;-1.50;99.90
8892;DHT22;4482;54.332;10.118;2022-12-11T10:26:58;-1.50;99.90
8892;DHT22;4482;54.332;10.118;2022-12-11T10:29:25;-1.50;99.90
8892;DHT22;4482;54.332;10.118;2022-12-11T10:31:56;-1.50;99.90
8892;DHT22;4482;54.332;10.118;2022-12-11T10:34:30;-1.40;99.90
8892;DHT22;4482;54.332;10.118;2022-12-11T10:36:59;-1.40;99.90
8892;DHT22;4482;54.332;10.118;2022-12-11T10:39:27;-1.50;99.90
8892;DHT22;4482;54.332;10.118;2022-12-11T10:41:54;-1.40;99.90
8892;DHT22;4482;54.332;10.118;2022-12-11T10:44:23;-1.50;99.90
8892;DHT22;4482;54.332;10.118;2022-12-11T10:47:03;-1.50;99.90
8892;DHT22;4482;54.332;10.118;2022-12-11T10:49:31;-1.50;99.90
8892;DHT22;4482;54.332;10.118;2022-12-11T10:52:00;-1.40;99.90
8892;DHT22;4482;54.332;10.118;2022-12-11T10:54:31;-1.40;99.90
8892;DHT22;4482;54.332;10.118;2022-12-11T10:57:00;-1.40;99.90
8892;DHT22;4482;54.332;10.118;2022-12-11T10:59:33;-1.40;99.90
8892;DHT22;4482;54.332;10.118;2022-12-11T11:02:02;-1.40;99.90
8892;DHT22;4482;54.332;10.118;2022-12-11T11:04:32;-1.40;99.90
8892;DHT22;4482;54.332;10.118;2022-12-11T11:07:02;-1.30;99.90
8892;DHT22;4482;54.332;10.118;2022-12-11T11:09:34;-1.30;99.90
8892;DHT22;4482;54.332;10.118;2022-12-11T11:12:01;-1.30;99.90
8892;DHT22;4482;54.332;10.118;2022-12-11T11:14:28;-1.20;99.90
8892;DHT22;4482;54.332;10.118;2022-12-11T11:16:56;-1.20;99.90
8892;DHT22;4482;54.332;10.118;2022-12-11T11:19:28;-1.20;99.90
8892;DHT22;4482;54.332;10.118;2022-12-11T11:21:58;-1.20;99.90
8892;DHT22;4482;54.332;10.118;2022-12-11T11:24:29;-1.20;99.90
8892;DHT22;4482;54.332;10.118;2022-12-11T11:27:00;-1.20;99.90
8892;DHT22;4482;54.332;10.118;2022-12-11T11:29:29;-1.20;99.90
8892;DHT22;4482;54.332;10.118;2022-12-11T11:32:03;-1.20;99.90
8892;DHT22;4482;54.332;10.118;2022-12-11T11:34:39;-1.20;99.90
8892;DHT22;4482;54.332;10.118;2022-12-11T11:37:22;-1.10;99.90
8892;DHT22;4482;54.332;10.118;2022-12-11T11:39:53;-1.10;99.90
8892;DHT22;4482;54.332;10.118;2022-12-11T11:42:24;-1.10;99.90
8892;DHT22;4482;54.332;10.118;2022-12-11T11:45:00;-1.10;99.90
8892;DHT22;4482;54.332;10.118;2022-12-11T11:47:33;-1.00;99.90
8892;DHT22;4482;54.332;10.118;2022-12-11T11:50:07;-1.00;99.90
8892;DHT22;4482;54.332;10.118;2022-12-11T11:52:40;-1.00;99.90
8892;DHT22;4482;54.332;10.118;2022-12-11T11:55:15;-1.00;99.90
8892;DHT22;4482;54.332;10.118;2022-12-11T11:57:46;-0.90;99.90
8892;DHT22;4482;54.332;10.118;2022-12-11T12:00:18;-0.90;99.90
8892;DHT22;4482;54.332;10.118;2022-12-11T12:02:46;-0.90;99.90
8892;DHT22;4482;54.332;10.118;2022-12-11T12:05:16;-0.40;99.90
8892;DHT22;4482;54.332;10.118;2022-12-11T12:07:49;-0.30;99.90
8892;DHT22;4482;54.332;10.118;2022-12-11T12:10:20;-0.40;99.90
8892;DHT22;4482;54.332;10.118;2022-12-11T12:12:55;-0.50;99.90
8892;DHT22;4482;54.332;10.118;2022-12-11T12:15:31;-0.60;99.90
8892;DHT22;4482;54.332;10.118;2022-12-11T12:18:08;-0.60;99.90
8892;DHT22;4482;54.332;10.118;2022-12-11T12:20:46;-0.60;99.90
8892;DHT22;4482;54.332;10.118;2022-12-11T12:23:38;-0.70;99.90
8892;DHT22;4482;54.332;10.118;2022-12-11T12:26:13;-0.70;99.90
8892;DHT22;4482;54.332;10.118;2022-12-11T12:28:49;-0.60;99.90
8892;DHT22;4482;54.332;10.118;2022-12-11T12:31:30;-0.60;99.90
8892;DHT22;4482;54.332;10.118;2022-12-11T12:34:04;-0.60;99.90
8892;DHT22;4482;54.332;10.118;2022-12-11T12:36:41;-0.60;99.90
8892;DHT22;4482;54.332;10.118;2022-12-11T12:39:16;-0.60;99.90
8892;DHT22;4482;54.332;10.118;2022-12-11T12:41:53;-0.60;99.90
8892;DHT22;4482;54.332;10.118;2022-12-11T12:44:23;-0.60;99.90
8892;DHT22;4482;54.332;10.118;2022-12-11T12:46:56;-0.50;99.90
8892;DHT22;4482;54.332;10.118;2022-12-11T12:49:33;-0.50;99.90
8892;DHT22;4482;54.332;10.118;2022-12-11T12:52:03;-0.50;99.90
8892;DHT22;4482;54.332;10.118;2022-12-11T12:54:31;-0.50;99.90
8892;DHT22;4482;54.332;10.118;2022-12-11T12:57:01;-0.50;99.90
8892;DHT22;4482;54.332;10.118;2022-12-11T12:59:28;-0.50;99.90
8892;DHT22;4482;54.332;10.118;2022-12-11T13:01:56;-0.50;99.90
8892;DHT22;4482;54.332;10.118;2022-12-11T13:04:35;-0.50;99.90
8892;DHT22;4482;54.332;10.118;2022-12-11T13:07:16;0.00;99.90
8892;DHT22;4482;54.332;10.118;2022-12-11T13:09:59;0.00;99.90
8892;DHT22;4482;54.332;10.118;2022-12-11T13:12:41;-0.10;99.90
8892;DHT22;4482;54.332;10.118;2022-12-11T13:15:30;-0.20;99.90
8892;DHT22;4482;54.332;10.118;2022-12-11T13:17:59;-0.30;99.90
8892;DHT22;4482;54.332;10.118;2022-12-11T13:20:28;-0.30;99.90
8892;DHT22;4482;54.332;10.118;2022-12-11T13:23:13;-0.40;99.90
8892;DHT22;4482;54.332;10.118;2022-12-11T13:25:47;-0.40;99.90
8892;DHT22;4482;54.332;10.118;2022-12-11T13:28:24;-0.40;99.90
8892;DHT22;4482;54.332;10.118;2022-12-11T13:30:58;-0.50;99.90
8892;DHT22;4482;54.332;10.118;2022-12-11T13:33:25;-0.50;99.90
8892;DHT22;4482;54.332;10.118;2022-12-11T13:36:12;-0.50;99.90
8892;DHT22;4482;54.332;10.118;2022-12-11T13:38:46;-0.40;99.90
8892;DHT22;4482;54.332;10.118;2022-12-11T13:41:13;-0.40;99.90
8892;DHT22;4482;54.332;10.118;2022-12-11T13:43:42;-0.40;99.90
8892;DHT22;4482;54.332;10.118;2022-12-11T13:46:11;-0.30;99.90
8892;DHT22;4482;54.332;10.118;2022-12-11T13:48:45;-0.30;99.90
8892;DHT22;4482;54.332;10.118;2022-12-11T13:51:16;-0.20;99.90
8892;DHT22;4482;54.332;10.118;2022-12-11T13:53:44;-0.30;99.90
8892;DHT22;4482;54.332;10.118;2022-12-11T13:56:16;-0.20;99.90
8892;DHT22;4482;54.332;10.118;2022-12-11T13:58:43;-0.20;99.90
8892;DHT22;4482;54.332;10.118;2022-12-11T14:01:14;-0.30;99.90
8892;DHT22;4482;54.332;10.118;2022-12-11T14:03:47;-0.30;99.90
8892;DHT22;4482;54.332;10.118;2022-12-11T14:06:17;-0.40;99.90
8892;DHT22;4482;54.332;10.118;2022-12-11T14:08:48;-0.50;99.90
8892;DHT22;4482;54.332;10.118;2022-12-11T14:11:20;-0.50;99.90
8892;DHT22;4482;54.332;10.118;2022-12-11T14:13:47;-0.50;99.90
8892;DHT22;4482;54.332;10.118;2022-12-11T14:16:18;-0.40;99.90
8892;DHT22;4482;54.332;10.118;2022-12-11T14:18:48;-0.40;99.90
8892;DHT22;4482;54.332;10.118;2022-12-11T14:21:20;-0.40;99.90
8892;DHT22;4482;54.332;10.118;2022-12-11T14:23:54;-0.50;99.90
8892;DHT22;4482;54.332;10.118;2022-12-11T14:26:23;-0.50;99.90
8892;DHT22;4482;54.332;10.118;2022-12-11T14:28:50;-0.50;99.90
8892;DHT22;4482;54.332;10.118;2022-12-11T14:31:24;-0.40;99.90
8892;DHT22;4482;54.332;10.118;2022-12-11T14:33:54;-0.50;99.90
8892;DHT22;4482;54.332;10.118;2022-12-11T14:36:23;-0.40;99.90
8892;DHT22;4482;54.332;10.118;2022-12-11T14:38:55;-0.40;99.90
8892;DHT22;4482;54.332;10.118;2022-12-11T14:41:26;-0.50;99.90
8892;DHT22;4482;54.332;10.118;2022-12-11T14:43:58;-0.50;99.90
8892;DHT22;4482;54.332;10.118;2022-12-11T14:46:31;-0.50;99.90
8892;DHT22;4482;54.332;10.118;2022-12-11T14:49:04;-0.50;99.90
8892;DHT22;4482;54.332;10.118;2022-12-11T14:51:37;-0.50;99.90
8892;DHT22;4482;54.332;10.118;2022-12-11T14:54:06;-0.50;99.90
8892;DHT22;4482;54.332;10.118;2022-12-11T14:56:37;-0.60;99.90
8892;DHT22;4482;54.332;10.118;2022-12-11T14:59:06;-0.60;99.90
8892;DHT22;4482;54.332;10.118;2022-12-11T15:01:40;-0.30;99.90
8892;DHT22;4482;54.332;10.118;2022-12-11T15:04:21;-0.20;99.90
8892;DHT22;4482;54.332;10.118;2022-12-11T15:06:50;-0.40;99.90
8892;DHT22;4482;54.332;10.118;2022-12-11T15:09:20;-0.50;99.90
8892;DHT22;4482;54.332;10.118;2022-12-11T15:11:48;-0.60;99.90
8892;DHT22;4482;54.332;10.118;2022-12-11T15:14:17;-0.70;99.90
8892;DHT22;4482;54.332;10.118;2022-12-11T15:16:45;-0.80;99.90
8892;DHT22;4482;54.332;10.118;2022-12-11T15:19:19;-0.80;99.90
8892;DHT22;4482;54.332;10.118;2022-12-11T15:21:47;-0.80;99.90
8892;DHT22;4482;54.332;10.118;2022-12-11T15:24:26;-0.90;99.90
8892;DHT22;4482;54.332;10.118;2022-12-11T15:26:57;-0.90;99.90
8892;DHT22;4482;54.332;10.118;2022-12-11T15:29:31;-0.90;99.90
8892;DHT22;4482;54.332;10.118;2022-12-11T15:32:11;-1.00;99.90
8892;DHT22;4482;54.332;10.118;2022-12-11T15:34:44;-1.00;99.90
8892;DHT22;4482;54.332;10.118;2022-12-11T15:37:19;-1.10;99.90
8892;DHT22;4482;54.332;10.118;2022-12-11T15:39:48;-1.10;99.90
8892;DHT22;4482;54.332;10.118;2022-12-11T15:42:20;-1.10;99.90
8892;DHT22;4482;54.332;10.118;2022-12-11T15:44:48;-1.10;99.90
8892;DHT22;4482;54.332;10.118;2022-12-11T15:47:20;-1.10;99.90
8892;DHT22;4482;54.332;10.118;2022-12-11T15:49:47;-1.10;99.90
8892;DHT22;4482;54.332;10.118;2022-12-11T15:52:14;-1.10;99.90
8892;DHT22;4482;54.332;10.118;2022-12-11T15:54:41;-1.20;99.90
8892;DHT22;4482;54.332;10.118;2022-12-11T15:57:14;-1.20;99.90
8892;DHT22;4482;54.332;10.118;2022-12-11T15:59:42;-1.20;99.90
8892;DHT22;4482;54.332;10.118;2022-12-11T16:02:11;-1.20;99.90
8892;DHT22;4482;54.332;10.118;2022-12-11T16:04:38;-1.20;99.90